Time;durP1;ratioP1;P1;durP2;ratioP2;P2;SDS_P1;SDS_P2;PMS_P1;PMS_P2;Temp;Humidity;BMP_temperature;BMP_pressure;BME280_temperature;BME280_humidity;BME280_pressure;Samples;Min_cycle;Max_cycle;Signal;HPM_P1;HPM_P2
2020/12/05 11:56:32;;;;;;;1355.00;649.13;;;;;;;;;;5074332;28;20688;-75
2020/12/05 11:58:58;;;;;;;648.85;375.17;;;;;;;;;;5072768;28;20039;-76
2020/12/05 12:01:24;;;;;;;472.83;266.60;;;;;;;;;;5074102;28;20013;-76
2020/12/05 12:03:50;;;;;;;1214.20;652.45;;;;;;;;;;5074271;28;20048;-75
2020/12/05 12:06:19;;;;;;;157.38;92.40;;;;;;;;;;5074088;28;20104;-75
2020/12/05 12:08:45;;;;;;;388.65;238.70;;;;;;;;;;5073823;28;20027;-76
2020/12/05 12:11:21;;;;;;;86.82;55.22;;;;;;;;;;5074071;28;20025;-76
2020/12/05 12:13:47;;;;;;;90.03;63.25;;;;;;;;;;5073766;28;20025;-76
2020/12/05 12:16:14;;;;;;;424.75;273.85;;;;;;;;;;5073738;28;20035;-75
2020/12/05 12:18:40;;;;;;;604.13;389.35;;;;;;;;;;5072600;28;20079;-75
2020/12/05 12:21:06;;;;;;;228.73;132.73;;;;;;;;;;5073717;28;20024;-76
2020/12/05 12:23:32;;;;;;;98.25;54.17;;;;;;;;;;5072589;28;20024;-76
2020/12/05 12:25:58;;;;;;;44.88;27.13;;;;;;;;;;5073373;28;20033;-76
2020/12/05 12:28:25;;;;;;;950.90;590.03;;;;;;;;;;5072570;28;20029;-76
2020/12/05 12:30:51;;;;;;;320.45;172.63;;;;;;;;;;5073536;28;20407;-76
2020/12/05 12:33:17;;;;;;;1142.05;521.17;;;;;;;;;;5073659;28;20021;-76
2020/12/05 12:35:46;;;;;;;153.40;73.15;;;;;;;;;;5072486;28;20410;-76
2020/12/05 12:38:14;;;;;;;188.25;100.57;;;;;;;;;;5073437;28;20064;-76
2020/12/05 12:40:41;;;;;;;527.17;301.05;;;;;;;;;;5071232;28;20037;-76
2020/12/05 12:43:07;;;;;;;529.45;242.98;;;;;;;;;;5071848;28;20037;-76
2020/12/05 12:45:33;;;;;;;393.85;207.85;;;;;;;;;;5073278;28;20028;-76
2020/12/05 12:50:31;;;;;;;130.50;67.03;;;;;;;;;;5073466;28;20024;-76
2020/12/05 12:52:57;;;;;;;891.35;560.95;;;;;;;;;;5072065;28;20021;-80
2020/12/05 12:55:23;;;;;;;203.45;135.27;;;;;;;;;;5072722;28;20049;-76
2020/12/05 12:57:50;;;;;;;104.07;64.53;;;;;;;;;;5072950;28;20039;-76
2020/12/05 13:00:16;;;;;;;49.78;29.13;;;;;;;;;;5072973;28;20021;-76
2020/12/05 13:02:42;;;;;;;64.35;38.25;;;;;;;;;;5072842;28;20066;-77
2020/12/05 13:05:08;;;;;;;80.63;30.60;;;;;;;;;;5072756;28;20107;-76
2020/12/05 13:07:34;;;;;;;40.00;23.88;;;;;;;;;;5060468;28;20021;-77
2020/12/05 13:10:01;;;;;;;71.45;36.03;;;;;;;;;;5059721;28;20029;-76
2020/12/05 13:12:27;;;;;;;563.30;314.90;;;;;;;;;;5058326;28;20089;-77
2020/12/05 13:14:53;;;;;;;106.32;59.80;;;;;;;;;;5059381;28;20025;-76
2020/12/05 13:17:19;;;;;;;547.05;326.08;;;;;;;;;;5059360;28;20044;-77
2020/12/05 13:19:45;;;;;;;226.23;140.45;;;;;;;;;;5059596;28;20033;-77
2020/12/05 13:22:11;;;;;;;346.63;215.60;;;;;;;;;;5059549;28;20032;-77
2020/12/05 13:24:37;;;;;;;258.88;163.15;;;;;;;;;;5059301;28;20111;-76
2020/12/05 13:27:03;;;;;;;422.83;292.73;;;;;;;;;;5059227;28;20028;-77
2020/12/05 13:29:30;;;;;;;100.38;59.55;;;;;;;;;;5059133;28;20123;-77
2020/12/05 13:31:56;;;;;;;142.98;85.45;;;;;;;;;;5059382;28;20048;-77
2020/12/05 13:34:22;;;;;;;576.50;378.60;;;;;;;;;;5058822;28;20028;-76
2020/12/05 13:36:48;;;;;;;378.92;246.40;;;;;;;;;;5059216;28;20074;-76
2020/12/05 13:39:14;;;;;;;112.43;77.82;;;;;;;;;;5057838;28;20029;-77
2020/12/05 13:41:40;;;;;;;676.15;432.63;;;;;;;;;;5058922;28;20017;-76
2020/12/05 13:44:06;;;;;;;540.45;314.23;;;;;;;;;;5058918;28;20025;-76
2020/12/05 13:46:32;;;;;;;507.55;293.30;;;;;;;;;;5057810;28;20124;-76
2020/12/05 13:48:58;;;;;;;765.88;539.47;;;;;;;;;;5059157;28;20059;-76
2020/12/05 13:51:33;;;;;;;371.55;240.95;;;;;;;;;;5057699;28;20021;-76
2020/12/05 13:53:59;;;;;;;345.73;199.55;;;;;;;;;;5058668;28;20024;-77
2020/12/05 13:56:28;;;;;;;264.08;166.48;;;;;;;;;;5058570;28;20045;-77
2020/12/05 13:58:54;;;;;;;47.78;27.95;;;;;;;;;;5058473;28;20047;-76
2020/12/05 14:01:20;;;;;;;528.85;329.25;;;;;;;;;;5058616;28;20288;-76
2020/12/05 14:03:46;;;;;;;99.60;54.47;;;;;;;;;;5058817;28;20025;-77
2020/12/05 14:06:13;;;;;;;210.95;133.70;;;;;;;;;;5057617;28;20041;-76
2020/12/05 14:08:39;;;;;;;263.25;162.65;;;;;;;;;;5057028;28;20060;-76
2020/12/05 14:11:05;;;;;;;333.20;166.25;;;;;;;;;;5058553;28;20032;-76
2020/12/05 14:13:32;;;;;;;455.23;242.95;;;;;;;;;;5058418;28;20047;-76
2020/12/05 14:15:58;;;;;;;647.47;417.83;;;;;;;;;;5058427;28;20025;-76
2020/12/05 14:18:24;;;;;;;116.05;66.90;;;;;;;;;;5057144;28;20096;-76
2020/12/05 14:20:50;;;;;;;110.13;56.30;;;;;;;;;;5058277;28;20426;-76
2020/12/05 14:23:16;;;;;;;91.93;48.38;;;;;;;;;;5058194;28;20331;-76
2020/12/05 14:25:42;;;;;;;224.82;149.73;;;;;;;;;;5056895;28;20190;-77
2020/12/05 14:28:10;;;;;;;895.88;605.58;;;;;;;;;;5058205;28;20120;-76
2020/12/05 14:30:36;;;;;;;552.13;338.95;;;;;;;;;;5058092;28;20024;-76
2020/12/05 14:33:02;;;;;;;438.45;310.08;;;;;;;;;;5058065;28;20021;-76
2020/12/05 14:35:28;;;;;;;46.80;29.50;;;;;;;;;;5058182;28;20040;-76
2020/12/05 14:37:54;;;;;;;54.00;33.15;;;;;;;;;;5057935;28;20417;-76
2020/12/05 14:40:20;;;;;;;135.75;94.15;;;;;;;;;;5058007;28;20403;-76
2020/12/05 14:42:46;;;;;;;38.60;26.40;;;;;;;;;;5057018;28;20067;-76
2020/12/05 14:45:12;;;;;;;87.47;60.60;;;;;;;;;;5056151;28;20037;-76
2020/12/05 14:47:38;;;;;;;267.70;207.50;;;;;;;;;;5057408;28;20044;-76
2020/12/05 14:50:05;;;;;;;67.75;42.40;;;;;;;;;;5057953;28;20028;-75
2020/12/05 14:52:32;;;;;;;39.65;27.70;;;;;;;;;;5057724;28;20056;-76
2020/12/05 14:54:58;;;;;;;30.50;19.65;;;;;;;;;;5055971;28;20048;-76
2020/12/05 14:57:24;;;;;;;29.30;17.50;;;;;;;;;;5057360;28;20025;-76
2020/12/05 14:59:50;;;;;;;39.22;21.50;;;;;;;;;;5056587;28;20029;-76
2020/12/05 15:02:35;;;;;;;54.42;25.98;;;;;;;;;;5057591;28;20021;-77
2020/12/05 15:05:02;;;;;;;38.90;20.98;;;;;;;;;;5057230;28;20063;-76
2020/12/05 15:07:28;;;;;;;47.42;27.58;;;;;;;;;;5056267;28;20021;-76
2020/12/05 15:09:54;;;;;;;37.28;21.45;;;;;;;;;;5056283;28;20413;-76
2020/12/05 15:12:20;;;;;;;37.45;21.02;;;;;;;;;;5057247;28;20310;-76
2020/12/05 15:14:46;;;;;;;660.20;373.90;;;;;;;;;;5057279;28;20025;-75
2020/12/05 15:17:12;;;;;;;1375.93;773.40;;;;;;;;;;5057276;28;20078;-76
2020/12/05 15:19:38;;;;;;;971.20;649.47;;;;;;;;;;5057206;28;20033;-76
2020/12/05 15:22:05;;;;;;;491.80;335.08;;;;;;;;;;5057354;28;20108;-76
2020/12/05 15:24:31;;;;;;;1311.22;696.70;;;;;;;;;;5056800;28;20029;-76
2020/12/05 15:26:57;;;;;;;749.42;442.33;;;;;;;;;;5057092;28;20108;-76
2020/12/05 15:29:23;;;;;;;341.77;178.73;;;;;;;;;;5055463;28;20048;-77
2020/12/05 15:31:49;;;;;;;116.78;59.28;;;;;;;;;;5056872;28;20021;-79
2020/12/05 15:34:15;;;;;;;436.83;276.77;;;;;;;;;;5056801;28;20021;-77
2020/12/05 15:36:45;;;;;;;87.95;65.32;;;;;;;;;;5056949;28;20064;-76
2020/12/05 15:39:11;;;;;;;54.53;35.95;;;;;;;;;;5056622;28;20104;-78
2020/12/05 15:41:37;;;;;;;27.23;17.67;;;;;;;;;;5056607;28;20025;-76
2020/12/05 15:44:03;;;;;;;28.70;16.42;;;;;;;;;;5056595;28;20025;-76
2020/12/05 15:46:29;;;;;;;30.40;16.30;;;;;;;;;;5056805;28;20048;-77
2020/12/05 15:48:55;;;;;;;31.88;16.17;;;;;;;;;;5056474;28;20029;-77
2020/12/05 15:51:21;;;;;;;31.95;16.95;;;;;;;;;;5056719;28;20069;-77
2020/12/05 15:53:47;;;;;;;26.00;16.13;;;;;;;;;;5055416;28;20029;-76
2020/12/05 15:56:16;;;;;;;29.50;17.38;;;;;;;;;;5055870;28;20043;-76
2020/12/05 15:58:43;;;;;;;36.13;20.10;;;;;;;;;;5045330;28;20025;-76
2020/12/05 16:01:09;;;;;;;26.80;15.18;;;;;;;;;;5035365;28;20026;-75
2020/12/05 16:03:35;;;;;;;28.70;18.92;;;;;;;;;;5037242;28;20036;-76
2020/12/05 16:06:01;;;;;;;25.17;16.05;;;;;;;;;;5036488;28;20025;-75
2020/12/05 16:08:27;;;;;;;30.90;17.95;;;;;;;;;;5043403;28;20415;-75
2020/12/05 16:10:56;;;;;;;28.63;16.50;;;;;;;;;;5052240;28;20068;-75
2020/12/05 16:13:22;;;;;;;30.38;18.02;;;;;;;;;;5036130;28;20064;-76
2020/12/05 16:15:50;;;;;;;31.17;17.25;;;;;;;;;;5036435;28;20435;-75
2020/12/05 16:18:16;;;;;;;27.00;17.30;;;;;;;;;;5035297;28;20034;-75
2020/12/05 16:20:42;;;;;;;39.83;19.55;;;;;;;;;;5034994;28;20039;-76
2020/12/05 16:23:08;;;;;;;31.63;16.67;;;;;;;;;;5036276;28;20104;-75
2020/12/05 16:25:34;;;;;;;35.45;19.30;;;;;;;;;;5035769;28;20034;-75
2020/12/05 16:28:00;;;;;;;35.55;20.02;;;;;;;;;;5036086;28;20037;-75
2020/12/05 16:30:26;;;;;;;35.92;17.92;;;;;;;;;;5044752;28;20063;-75
2020/12/05 16:32:52;;;;;;;58.25;33.55;;;;;;;;;;5036294;28;20022;-75
2020/12/05 16:35:18;;;;;;;74.72;43.08;;;;;;;;;;5036502;28;20140;-75
2020/12/05 16:37:44;;;;;;;49.38;27.75;;;;;;;;;;5036230;28;20032;-75
2020/12/05 16:40:10;;;;;;;73.45;39.58;;;;;;;;;;5051789;28;20041;-75
2020/12/05 16:42:36;;;;;;;64.75;36.83;;;;;;;;;;5038727;28;20053;-75
2020/12/05 16:45:03;;;;;;;66.00;36.35;;;;;;;;;;5039975;28;20191;-75
2020/12/05 16:47:29;;;;;;;58.47;31.52;;;;;;;;;;5039991;28;20053;-75
2020/12/05 16:49:55;;;;;;;36.70;22.23;;;;;;;;;;5055411;28;20033;-75
2020/12/05 16:52:21;;;;;;;43.67;22.75;;;;;;;;;;5055454;28;20052;-78
2020/12/05 16:54:48;;;;;;;42.88;20.35;;;;;;;;;;5039557;28;20368;-76
2020/12/05 16:57:14;;;;;;;50.92;25.23;;;;;;;;;;5053522;28;20108;-75
2020/12/05 16:59:40;;;;;;;41.15;22.48;;;;;;;;;;5058464;28;20033;-75
2020/12/05 17:02:06;;;;;;;41.58;22.45;;;;;;;;;;5042261;28;20412;-75
2020/12/05 17:04:32;;;;;;;55.03;30.60;;;;;;;;;;5045655;28;20103;-75
2020/12/05 17:06:58;;;;;;;144.15;57.40;;;;;;;;;;5053523;28;20020;-76
2020/12/05 17:09:25;;;;;;;43.10;25.02;;;;;;;;;;5059561;28;20036;-75
2020/12/05 17:11:51;;;;;;;41.88;23.27;;;;;;;;;;5049356;28;20079;-75
2020/12/05 17:14:17;;;;;;;46.25;25.10;;;;;;;;;;5044077;28;20025;-75
2020/12/05 17:16:43;;;;;;;42.83;25.15;;;;;;;;;;5059545;28;20032;-75
2020/12/05 17:19:10;;;;;;;46.35;25.25;;;;;;;;;;5051832;28;20033;-75
2020/12/05 17:21:36;;;;;;;44.28;27.10;;;;;;;;;;5045241;28;20116;-74
2020/12/05 17:24:04;;;;;;;43.05;26.92;;;;;;;;;;5046850;28;20036;-75
2020/12/05 17:26:30;;;;;;;45.10;25.48;;;;;;;;;;5049888;28;20037;-75
2020/12/05 17:28:56;;;;;;;38.95;22.35;;;;;;;;;;5053403;28;20139;-75
2020/12/05 17:31:23;;;;;;;46.63;26.95;;;;;;;;;;5059159;28;20029;-75
2020/12/05 17:33:49;;;;;;;49.38;25.35;;;;;;;;;;5050443;28;20463;-76
2020/12/05 17:36:15;;;;;;;45.58;25.45;;;;;;;;;;5046087;28;20033;-75
2020/12/05 17:38:41;;;;;;;46.45;26.77;;;;;;;;;;5039398;28;20025;-75
2020/12/05 17:41:07;;;;;;;50.17;28.10;;;;;;;;;;5039210;28;20033;-75
2020/12/05 17:43:33;;;;;;;46.30;26.08;;;;;;;;;;5038957;28;20025;-75
2020/12/05 17:46:00;;;;;;;41.95;24.80;;;;;;;;;;5038927;28;20047;-76
2020/12/05 17:48:26;;;;;;;53.40;28.63;;;;;;;;;;5039162;28;20026;-75
2020/12/05 17:50:52;;;;;;;43.88;25.80;;;;;;;;;;5039034;28;20030;-75
2020/12/05 17:53:19;;;;;;;46.10;27.55;;;;;;;;;;5038875;28;20021;-75
2020/12/05 17:55:45;;;;;;;52.70;27.65;;;;;;;;;;5038633;28;20057;-75
2020/12/05 17:58:11;;;;;;;49.00;28.15;;;;;;;;;;5038944;28;20021;-75
2020/12/05 18:00:37;;;;;;;52.85;29.42;;;;;;;;;;5038907;28;20481;-76
2020/12/05 18:03:03;;;;;;;53.05;30.23;;;;;;;;;;5038776;28;20109;-75
2020/12/05 18:05:30;;;;;;;56.45;32.78;;;;;;;;;;5038627;28;20021;-75
2020/12/05 18:07:56;;;;;;;50.80;31.55;;;;;;;;;;5038631;28;20096;-75
2020/12/05 18:10:22;;;;;;;54.60;30.40;;;;;;;;;;5037542;28;20411;-75
2020/12/05 18:12:48;;;;;;;46.10;28.48;;;;;;;;;;5046379;28;20033;-75
2020/12/05 18:15:14;;;;;;;51.50;31.83;;;;;;;;;;5058443;28;20425;-75
2020/12/05 18:17:41;;;;;;;48.05;27.98;;;;;;;;;;5058177;28;20029;-76
2020/12/05 18:20:08;;;;;;;50.45;28.42;;;;;;;;;;5058434;28;20411;-75
2020/12/05 18:22:34;;;;;;;53.72;29.73;;;;;;;;;;5057314;28;20028;-75
2020/12/05 18:25:00;;;;;;;51.25;29.05;;;;;;;;;;5058363;28;20040;-75
2020/12/05 18:27:28;;;;;;;48.38;28.05;;;;;;;;;;5058327;28;20017;-76
2020/12/05 18:29:54;;;;;;;45.25;26.55;;;;;;;;;;5058146;28;20468;-75
2020/12/05 18:32:20;;;;;;;51.58;28.60;;;;;;;;;;5057072;28;20025;-75
2020/12/05 18:34:46;;;;;;;53.47;28.42;;;;;;;;;;5058293;28;20025;-76
2020/12/05 18:37:12;;;;;;;61.33;32.97;;;;;;;;;;5057974;28;20108;-75
2020/12/05 18:39:38;;;;;;;76.10;35.00;;;;;;;;;;5056990;28;20024;-75
2020/12/05 18:42:04;;;;;;;58.83;31.85;;;;;;;;;;5056914;28;20033;-75
2020/12/05 18:44:30;;;;;;;57.58;32.42;;;;;;;;;;5056709;28;20059;-75
2020/12/05 18:46:56;;;;;;;58.53;35.85;;;;;;;;;;5057714;28;20108;-75
2020/12/05 18:49:23;;;;;;;44.97;25.92;;;;;;;;;;5057575;28;20040;-76
2020/12/05 18:51:49;;;;;;;44.65;27.33;;;;;;;;;;5057946;28;20032;-75
2020/12/05 18:54:15;;;;;;;46.20;26.52;;;;;;;;;;5057535;28;20087;-75
2020/12/05 18:56:43;;;;;;;53.60;28.63;;;;;;;;;;5056404;28;20319;-75
2020/12/05 18:59:09;;;;;;;47.88;28.30;;;;;;;;;;5056920;28;20017;-75
2020/12/05 19:01:36;;;;;;;49.63;27.25;;;;;;;;;;5057115;28;20029;-76
2020/12/05 19:04:02;;;;;;;43.28;25.35;;;;;;;;;;5055725;28;20022;-75
2020/12/05 19:06:28;;;;;;;45.70;24.58;;;;;;;;;;5057728;28;20091;-75
2020/12/05 19:08:54;;;;;;;49.47;27.35;;;;;;;;;;5057636;28;20100;-75
2020/12/05 19:11:28;;;;;;;44.92;24.70;;;;;;;;;;5057572;28;20021;-75
2020/12/05 19:13:54;;;;;;;40.38;23.67;;;;;;;;;;5056345;28;20047;-75
2020/12/05 19:16:21;;;;;;;41.08;24.20;;;;;;;;;;5057726;28;20071;-78
2020/12/05 19:18:47;;;;;;;43.05;25.00;;;;;;;;;;5057477;28;20039;-78
2020/12/05 19:21:13;;;;;;;39.78;22.85;;;;;;;;;;5057416;28;20025;-78
2020/12/05 19:23:41;;;;;;;43.55;22.92;;;;;;;;;;5057255;28;20063;-77
2020/12/05 19:26:08;;;;;;;44.88;26.48;;;;;;;;;;5057225;28;20426;-78
2020/12/05 19:28:34;;;;;;;38.90;22.10;;;;;;;;;;5055717;28;20315;-77
2020/12/05 19:31:00;;;;;;;39.65;22.48;;;;;;;;;;5057312;28;20021;-78
2020/12/05 19:33:26;;;;;;;38.78;22.67;;;;;;;;;;5055816;28;20170;-79
2020/12/05 19:35:52;;;;;;;39.35;23.38;;;;;;;;;;5056985;28;20046;-78
2020/12/05 19:38:18;;;;;;;37.30;21.73;;;;;;;;;;5057130;28;20048;-78
2020/12/05 19:40:44;;;;;;;43.40;22.92;;;;;;;;;;5056844;28;20021;-79
2020/12/05 19:43:10;;;;;;;37.38;23.40;;;;;;;;;;5055997;28;20037;-78
2020/12/05 19:45:36;;;;;;;37.97;22.58;;;;;;;;;;5056941;28;20108;-78
2020/12/05 19:48:02;;;;;;;40.22;23.65;;;;;;;;;;5055844;28;20056;-79
2020/12/05 19:50:29;;;;;;;37.08;21.63;;;;;;;;;;5056966;28;20017;-79
2020/12/05 19:52:55;;;;;;;37.47;22.20;;;;;;;;;;5056924;28;20017;-79
2020/12/05 19:55:21;;;;;;;36.30;22.88;;;;;;;;;;5056584;28;20057;-79
2020/12/05 19:57:47;;;;;;;43.53;24.60;;;;;;;;;;5056667;28;20029;-78
2020/12/05 20:00:13;;;;;;;42.97;25.85;;;;;;;;;;5056642;28;20028;-79
2020/12/05 20:02:40;;;;;;;36.88;23.02;;;;;;;;;;5056763;28;20025;-78
2020/12/05 20:05:06;;;;;;;38.28;22.48;;;;;;;;;;5056552;28;20021;-79
2020/12/05 20:07:32;;;;;;;40.22;22.88;;;;;;;;;;5056470;28;20053;-78
2020/12/05 20:10:13;;;;;;;40.55;23.73;;;;;;;;;;5056635;28;20017;-78
2020/12/05 20:12:39;;;;;;;37.67;23.70;;;;;;;;;;5056533;28;20040;-78
2020/12/05 20:15:05;;;;;;;39.08;25.17;;;;;;;;;;5056699;28;20411;-77
2020/12/05 20:17:31;;;;;;;33.92;21.77;;;;;;;;;;5060767;28;20048;-78
2020/12/05 20:19:58;;;;;;;33.65;21.73;;;;;;;;;;5059574;28;20033;-78
2020/12/05 20:22:24;;;;;;;39.30;22.83;;;;;;;;;;5060404;28;20033;-79
2020/12/05 20:24:50;;;;;;;37.72;24.23;;;;;;;;;;5060316;28;20327;-79
2020/12/05 20:27:16;;;;;;;38.50;23.83;;;;;;;;;;5060409;28;20025;-78
2020/12/05 20:29:42;;;;;;;38.72;22.05;;;;;;;;;;5059931;28;20029;-79
2020/12/05 20:32:08;;;;;;;31.65;20.83;;;;;;;;;;5058877;28;20033;-80
2020/12/05 20:34:34;;;;;;;37.35;23.65;;;;;;;;;;5060174;28;20029;-80
2020/12/05 20:37:00;;;;;;;38.22;22.27;;;;;;;;;;5060521;28;20027;-79
2020/12/05 20:39:27;;;;;;;35.03;21.73;;;;;;;;;;5059299;28;20350;-79
2020/12/05 20:42:06;;;;;;;30.98;19.67;;;;;;;;;;5060053;28;20429;-79
2020/12/05 20:44:33;;;;;;;35.65;22.92;;;;;;;;;;5060103;28;20025;-79
2020/12/05 20:46:59;;;;;;;33.00;20.27;;;;;;;;;;5060105;28;20334;-79
2020/12/05 20:49:25;;;;;;;30.80;19.45;;;;;;;;;;5060056;28;20440;-80
2020/12/05 20:51:52;;;;;;;31.42;20.30;;;;;;;;;;5060331;28;20319;-80
2020/12/05 20:54:18;;;;;;;31.75;20.67;;;;;;;;;;5059766;28;20028;-79
2020/12/05 20:56:46;;;;;;;36.22;22.08;;;;;;;;;;5052184;28;20032;-79
2020/12/05 20:59:12;;;;;;;40.03;20.88;;;;;;;;;;5047980;28;20067;-79
2020/12/05 21:01:38;;;;;;;35.03;21.67;;;;;;;;;;5047670;28;20022;-79
2020/12/05 21:04:04;;;;;;;32.65;21.20;;;;;;;;;;5049738;28;20030;-79
2020/12/05 21:06:30;;;;;;;33.78;19.75;;;;;;;;;;5045934;28;20040;-79
2020/12/05 21:08:57;;;;;;;30.35;19.08;;;;;;;;;;5049531;28;20021;-78
2020/12/05 21:11:28;;;;;;;31.50;18.95;;;;;;;;;;5044704;28;20025;-78
2020/12/05 21:13:54;;;;;;;31.67;19.35;;;;;;;;;;5050176;28;20059;-79
2020/12/05 21:16:20;;;;;;;33.33;20.98;;;;;;;;;;5047387;28;20033;-80
2020/12/05 21:18:46;;;;;;;35.97;20.83;;;;;;;;;;5047246;28;20045;-79
2020/12/05 21:21:15;;;;;;;33.58;20.08;;;;;;;;;;5048377;28;20028;-79
2020/12/05 21:23:42;;;;;;;28.88;18.60;;;;;;;;;;5046661;28;20032;-79
2020/12/05 21:26:09;;;;;;;32.92;19.10;;;;;;;;;;5046226;28;20025;-78
2020/12/05 21:28:35;;;;;;;32.15;18.98;;;;;;;;;;5044804;28;20025;-79
2020/12/05 21:31:02;;;;;;;30.30;18.85;;;;;;;;;;5046486;28;20346;-79
2020/12/05 21:33:28;;;;;;;29.85;18.90;;;;;;;;;;5047599;28;20066;-79
2020/12/05 21:35:54;;;;;;;32.00;19.85;;;;;;;;;;5047902;28;20025;-79
2020/12/05 21:38:21;;;;;;;28.38;18.75;;;;;;;;;;5049842;28;20108;-79
2020/12/05 21:40:47;;;;;;;31.75;20.05;;;;;;;;;;5059150;28;20032;-79
2020/12/05 21:43:14;;;;;;;31.85;19.40;;;;;;;;;;5059041;28;20036;-79
2020/12/05 21:45:43;;;;;;;27.52;17.63;;;;;;;;;;5059023;28;20031;-78
2020/12/05 21:48:10;;;;;;;29.25;18.75;;;;;;;;;;5058918;28;20374;-79
2020/12/05 21:50:36;;;;;;;30.88;17.88;;;;;;;;;;5058978;28;20319;-79
2020/12/05 21:53:02;;;;;;;27.70;17.33;;;;;;;;;;5057836;28;20311;-80
2020/12/05 21:55:28;;;;;;;27.67;17.48;;;;;;;;;;5058495;28;20052;-80
2020/12/05 21:57:56;;;;;;;29.80;16.83;;;;;;;;;;5058765;28;20350;-79
2020/12/05 22:00:22;;;;;;;25.02;15.18;;;;;;;;;;5057596;28;20043;-80
2020/12/05 22:02:48;;;;;;;26.77;17.40;;;;;;;;;;5058975;28;20033;-80
2020/12/05 22:05:14;;;;;;;25.02;16.08;;;;;;;;;;5058324;28;20111;-79
2020/12/05 22:07:40;;;;;;;24.85;16.02;;;;;;;;;;5058964;28;20403;-80
2020/12/05 22:10:06;;;;;;;26.27;17.05;;;;;;;;;;5058748;28;20025;-80
2020/12/05 22:12:32;;;;;;;23.42;15.82;;;;;;;;;;5058559;28;20027;-79
2020/12/05 22:14:58;;;;;;;24.20;15.35;;;;;;;;;;5058683;28;20167;-80
2020/12/05 22:17:24;;;;;;;25.90;16.73;;;;;;;;;;5058442;28;20025;-79
2020/12/05 22:19:50;;;;;;;23.60;15.23;;;;;;;;;;5058323;28;20052;-80
2020/12/05 22:22:16;;;;;;;22.52;14.57;;;;;;;;;;5058144;28;20438;-79
2020/12/05 22:24:42;;;;;;;19.77;13.48;;;;;;;;;;5058095;28;20447;-80
2020/12/05 22:27:09;;;;;;;19.52;12.45;;;;;;;;;;5058236;28;20029;-80
2020/12/05 22:29:36;;;;;;;21.08;13.52;;;;;;;;;;5058387;28;20080;-80
2020/12/05 22:32:02;;;;;;;22.67;14.00;;;;;;;;;;5057038;28;20025;-80
2020/12/05 22:34:28;;;;;;;19.55;12.98;;;;;;;;;;5056936;28;20033;-80
2020/12/05 22:36:55;;;;;;;19.55;13.82;;;;;;;;;;5056685;28;20037;-80
2020/12/05 22:39:21;;;;;;;22.33;13.05;;;;;;;;;;5057021;28;20071;-80
2020/12/05 22:41:51;;;;;;;18.30;12.35;;;;;;;;;;5056858;28;20442;-80
2020/12/05 22:44:17;;;;;;;22.98;12.85;;;;;;;;;;5057924;28;20024;-79
2020/12/05 22:46:46;;;;;;;22.13;14.13;;;;;;;;;;5057974;28;20368;-79
2020/12/05 22:49:13;;;;;;;19.73;12.85;;;;;;;;;;5056447;28;20033;-80
2020/12/05 22:51:39;;;;;;;20.30;12.52;;;;;;;;;;5058007;28;20021;-80
2020/12/05 22:54:05;;;;;;;17.42;12.40;;;;;;;;;;5056473;28;20123;-80
2020/12/05 22:56:31;;;;;;;17.75;12.80;;;;;;;;;;5057580;28;20051;-79
2020/12/05 22:58:59;;;;;;;17.83;12.02;;;;;;;;;;5057563;28;20138;-79
2020/12/05 23:01:25;;;;;;;19.08;12.82;;;;;;;;;;5057579;28;20020;-79
2020/12/05 23:03:51;;;;;;;18.95;12.27;;;;;;;;;;5057597;28;20108;-79
2020/12/05 23:06:17;;;;;;;18.20;11.88;;;;;;;;;;5056316;28;20430;-80
2020/12/05 23:08:43;;;;;;;20.48;12.75;;;;;;;;;;5057417;28;20024;-79
2020/12/05 23:11:13;;;;;;;19.48;12.93;;;;;;;;;;5057538;28;20025;-80
2020/12/05 23:13:39;;;;;;;18.98;12.45;;;;;;;;;;5057753;28;20025;-80
2020/12/05 23:16:09;;;;;;;20.08;12.15;;;;;;;;;;5056236;28;20120;-80
2020/12/05 23:18:35;;;;;;;20.58;12.27;;;;;;;;;;5057516;28;20037;-80
2020/12/05 23:21:01;;;;;;;19.23;12.63;;;;;;;;;;5057253;28;20032;-81
2020/12/05 23:23:28;;;;;;;19.70;12.38;;;;;;;;;;5057458;28;20074;-80
2020/12/05 23:25:54;;;;;;;20.33;13.48;;;;;;;;;;5055791;28;20132;-80
2020/12/05 23:28:20;;;;;;;17.58;11.50;;;;;;;;;;5057336;28;20025;-80
2020/12/05 23:36:00;;;;;;;19.50;12.75;;;;;;;;;;5057472;28;20078;-80
2020/12/05 23:38:27;;;;;;;20.55;13.55;;;;;;;;;;5057309;28;20020;-79
2020/12/05 23:40:53;;;;;;;18.40;12.77;;;;;;;;;;5057209;28;20033;-79
2020/12/05 23:43:19;;;;;;;21.52;13.52;;;;;;;;;;5057044;28;20040;-79
2020/12/05 23:45:45;;;;;;;20.55;13.25;;;;;;;;;;5056923;28;20028;-79
2020/12/05 23:48:11;;;;;;;19.83;13.23;;;;;;;;;;5056947;28;20052;-79
2020/12/05 23:50:37;;;;;;;19.85;12.75;;;;;;;;;;5056559;28;20028;-80
2020/12/05 23:53:05;;;;;;;20.75;13.30;;;;;;;;;;5056873;28;20402;-80
2020/12/05 23:55:31;;;;;;;17.30;11.77;;;;;;;;;;5056540;28;20435;-80
2020/12/05 23:57:57;;;;;;;21.15;13.40;;;;;;;;;;5056778;28;20032;-80
